Time;durP1;ratioP1;P1;durP2;ratioP2;P2;SDS_P1;SDS_P2;PMS_P1;PMS_P2;Temp;Humidity;BMP_temperature;BMP_pressure;BME280_temperature;BME280_humidity;BME280_pressure;Samples;Min_cycle;Max_cycle;Signal;HPM_P1;HPM_P2
2022/10/04 00:00:07;;;;;;;5.38;2.72;;;;;;;11.61;80.03;98388.13;5025071;28;20395;-68
2022/10/04 00:02:33;;;;;;;4.22;2.60;;;;;;;11.65;79.70;98386.22;5005572;28;20097;-68
2022/10/04 00:05:06;;;;;;;2.67;2.47;;;;;;;11.53;79.44;98382.47;5020503;28;20340;-69
2022/10/04 00:07:45;;;;;;;2.88;2.63;;;;;;;11.53;79.86;98387.66;5024936;28;20060;-69
2022/10/04 00:10:22;;;;;;;5.90;2.85;;;;;;;11.44;80.26;98388.91;5024718;28;20326;-69
2022/10/04 00:12:59;;;;;;;3.90;2.63;;;;;;;11.56;79.94;98403.91;5024627;28;20262;-69
2022/10/04 00:15:30;;;;;;;5.03;3.17;;;;;;;11.47;79.40;98393.09;5025106;28;20029;-69
2022/10/04 00:18:10;;;;;;;4.63;2.95;;;;;;;11.65;79.51;98413.00;5024767;28;20033;-70
2022/10/04 00:20:52;;;;;;;4.70;2.85;;;;;;;11.60;79.72;98419.31;5004747;28;20030;-70
2022/10/04 00:23:23;;;;;;;4.05;2.80;;;;;;;11.52;79.61;98402.34;5022422;28;20040;-68
2022/10/04 00:25:54;;;;;;;;;;;;;;;11.51;79.23;98405.84;5025127;28;20033;-68
2022/10/04 00:28:19;;;;;;;4.00;2.95;;;;;;;11.51;80.02;98415.38;5024763;28;19976;-68
2022/10/04 00:31:16;;;;;;;6.35;3.10;;;;;;;11.51;79.66;98429.19;5024132;28;20385;-68
2022/10/04 00:33:43;;;;;;;5.07;3.15;;;;;;;11.40;80.53;98421.91;5018105;28;20038;-68
2022/10/04 00:36:31;;;;;;;4.20;2.83;;;;;;;11.53;79.84;98416.19;5024411;28;20097;-69
2022/10/04 00:39:06;;;;;;;5.40;2.85;;;;;;;11.58;80.34;98427.16;5004862;28;20026;-68
2022/10/04 00:41:46;;;;;;;5.43;3.05;;;;;;;11.53;79.55;98417.00;5023759;28;20053;-68
2022/10/04 00:44:26;;;;;;;3.50;3.00;;;;;;;11.31;80.87;98413.72;5024321;28;20053;-68
2022/10/04 00:46:54;;;;;;;6.47;3.55;;;;;;;11.46;79.99;98412.16;5024153;28;20047;-69
2022/10/04 00:49:25;;;;;;;4.20;3.17;;;;;;;11.50;80.10;98422.34;5024033;28;20030;-68
2022/10/04 00:51:59;;;;;;;6.80;3.58;;;;;;;11.32;81.02;98420.59;5024035;28;20336;-68
2022/10/04 00:54:40;;;;;;;3.85;3.30;;;;;;;11.29;80.94;98410.34;5024342;28;20034;-68
2022/10/04 00:57:27;;;;;;;4.28;3.22;;;;;;;11.33;80.21;98427.41;5024378;28;20213;-68
2022/10/04 01:00:02;;;;;;;4.93;3.42;;;;;;;11.39;80.15;98429.75;5004256;28;20258;-68
2022/10/04 01:02:44;;;;;;;3.88;3.25;;;;;;;11.46;80.66;98432.91;5023272;28;20026;-68
2022/10/04 01:05:16;;;;;;;6.78;3.65;;;;;;;11.40;80.06;98431.41;5024130;28;20101;-68
2022/10/04 01:07:55;;;;;;;5.07;3.95;;;;;;;11.52;80.44;98435.22;5023638;28;20128;-68
2022/10/04 01:10:45;;;;;;;5.18;3.55;;;;;;;11.56;80.50;98434.19;5023739;28;20026;-69
2022/10/04 01:13:25;;;;;;;6.45;3.72;;;;;;;11.20;80.09;98422.81;5023811;28;20029;-67
2022/10/04 01:15:59;;;;;;;6.03;4.07;;;;;;;11.44;80.03;98424.34;5023564;28;20313;-67
2022/10/04 01:18:25;;;;;;;6.95;3.72;;;;;;;11.52;79.39;98437.81;5025463;28;20038;-68
2022/10/04 01:21:03;;;;;;;4.18;3.17;;;;;;;11.57;79.34;98436.69;5043498;28;20033;-69
2022/10/04 01:23:37;;;;;;;3.80;3.45;;;;;;;11.44;80.06;98439.91;5024991;28;20097;-70
2022/10/04 01:26:05;;;;;;;8.07;4.53;;;;;;;11.60;80.16;98443.50;5023652;28;20029;-70
2022/10/04 01:28:33;;;;;;;5.63;3.55;;;;;;;11.56;80.02;98450.56;5023457;28;20053;-70
2022/10/04 01:30:59;;;;;;;4.45;3.60;;;;;;;11.35;80.09;98428.22;5021740;28;20037;-68
2022/10/04 01:33:26;;;;;;;6.47;3.60;;;;;;;11.54;79.10;98442.03;5023430;28;20128;-69
2022/10/04 01:35:51;;;;;;;4.63;3.47;;;;;;;11.42;79.93;98441.75;5023497;28;20360;-69
2022/10/04 01:38:17;;;;;;;5.35;3.38;;;;;;;11.35;79.93;98444.59;5023481;28;20014;-69
2022/10/04 01:40:51;;;;;;;4.25;3.05;;;;;;;11.48;79.95;98439.69;5023317;28;20025;-68
2022/10/04 01:43:26;;;;;;;4.10;3.42;;;;;;;11.36;80.34;98443.69;5023493;28;20026;-69
2022/10/04 01:46:19;;;;;;;4.93;3.03;;;;;;;11.41;80.50;98430.53;5023410;28;20041;-68
2022/10/04 01:48:45;;;;;;;4.78;3.47;;;;;;;11.34;80.82;98434.28;5023411;28;20021;-68
2022/10/04 01:51:23;;;;;;;8.05;3.70;;;;;;;11.35;81.27;98439.41;5023493;28;20033;-68
2022/10/04 01:54:11;;;;;;;4.97;2.90;;;;;;;11.24;80.49;98433.88;5003958;28;20026;-67
2022/10/04 01:56:46;;;;;;;3.85;3.38;;;;;;;11.38;79.99;98448.81;5022785;28;20205;-69
2022/10/04 01:59:22;;;;;;;5.22;3.13;;;;;;;11.28;81.42;98447.53;5023316;28;20154;-68
2022/10/04 02:02:08;;;;;;;7.50;3.70;;;;;;;11.03;80.61;98412.31;5021739;28;20033;-68
2022/10/04 02:04:38;;;;;;;4.57;3.20;;;;;;;11.35;81.07;98462.75;5022828;28;20030;-69
2022/10/04 02:07:12;;;;;;;5.43;3.25;;;;;;;11.08;81.80;98438.88;5023061;28;20028;-69
2022/10/04 02:09:42;;;;;;;3.50;3.20;;;;;;;11.16;81.41;98447.16;5023210;28;20246;-69
2022/10/04 02:12:09;;;;;;;8.05;3.47;;;;;;;11.26;81.39;98473.53;5023018;28;20022;-69
2022/10/04 02:14:38;;;;;;;6.75;2.88;;;;;;;10.93;82.51;98458.53;5023051;28;20045;-69
2022/10/04 02:17:10;;;;;;;4.75;2.80;;;;;;;11.12;82.19;98470.69;5022987;28;20061;-69
2022/10/04 02:19:40;;;;;;;5.90;2.75;;;;;;;10.87;82.13;98438.94;5033874;28;20022;-70
2022/10/04 02:22:09;;;;;;;3.33;3.05;;;;;;;11.00;82.65;98480.69;5022946;28;20065;-69
2022/10/04 02:24:41;;;;;;;4.55;3.00;;;;;;;10.92;82.16;98453.44;5022978;28;20318;-68
2022/10/04 02:27:07;;;;;;;6.00;3.33;;;;;;;10.90;82.52;98465.59;5023540;28;20053;-68
2022/10/04 02:29:33;;;;;;;4.30;2.80;;;;;;;10.83;83.48;98471.03;5022887;28;20192;-68
2022/10/04 02:34:46;;;;;;;5.20;3.03;;;;;;;10.90;82.85;98460.41;5022983;28;20036;-68
2022/10/04 02:37:14;;;;;;;5.55;3.10;;;;;;;11.03;82.47;98477.97;5022904;28;20030;-68
2022/10/04 02:40:07;;;;;;;4.30;2.88;;;;;;;11.01;82.38;98477.16;5023091;28;20034;-68
2022/10/04 02:42:32;;;;;;;5.07;3.15;;;;;;;10.92;82.55;98463.78;5021216;28;20038;-68
2022/10/04 02:45:04;;;;;;;6.93;3.65;;;;;;;10.82;82.85;98468.50;5026605;28;20131;-67
2022/10/04 02:47:42;;;;;;;5.93;3.28;;;;;;;10.77;82.71;98468.69;5025407;28;20258;-67
2022/10/04 02:50:37;;;;;;;6.13;3.47;;;;;;;10.88;83.09;98481.19;5026493;28;20061;-68
2022/10/04 02:53:17;;;;;;;4.15;3.15;;;;;;;10.65;83.61;98477.00;5026393;28;20210;-66
2022/10/04 02:55:43;;;;;;;5.63;3.35;;;;;;;10.84;83.46;98485.66;5024511;28;20075;-67
2022/10/04 02:58:14;;;;;;;9.15;5.10;;;;;;;10.87;83.72;98480.38;5021739;28;20030;-67
2022/10/04 03:00:49;;;;;;;5.38;3.47;;;;;;;10.87;83.60;98487.28;5024339;28;20030;-68
2022/10/04 03:03:28;;;;;;;6.75;3.60;;;;;;;10.76;83.70;98485.16;5026401;28;20218;-68
2022/10/04 03:06:02;;;;;;;11.05;4.03;;;;;;;10.87;83.51;98492.44;5025736;28;20044;-67
2022/10/04 03:08:33;;;;;;;5.70;3.20;;;;;;;10.76;84.34;98490.34;5025924;28;20040;-69
2022/10/04 03:11:01;;;;;;;5.18;3.60;;;;;;;10.88;84.07;98494.97;5026012;28;20306;-69
2022/10/04 03:13:27;;;;;;;4.75;3.47;;;;;;;10.93;83.88;98488.75;5026119;28;20298;-70
2022/10/04 03:15:53;;;;;;;7.05;3.90;;;;;;;10.86;83.88;98501.97;5025689;28;20033;-69
2022/10/04 03:18:21;;;;;;;4.05;3.10;;;;;;;10.63;83.91;98471.88;5025337;28;20222;-68
2022/10/04 03:20:47;;;;;;;6.75;3.95;;;;;;;10.77;84.07;98492.00;5006520;28;20064;-69
2022/10/04 03:23:16;;;;;;;4.22;3.83;;;;;;;10.83;83.75;98498.66;5026069;28;20053;-68
2022/10/04 03:25:48;;;;;;;8.68;4.05;;;;;;;10.93;83.16;98499.13;5024710;28;20033;-68
2022/10/04 03:28:14;;;;;;;5.88;3.75;;;;;;;10.94;83.65;98493.03;5025556;28;20100;-68
2022/10/04 03:30:44;;;;;;;6.55;4.20;;;;;;;10.90;83.49;98499.25;5025380;28;20202;-68
2022/10/04 03:33:17;;;;;;;6.63;3.72;;;;;;;11.01;83.14;98499.66;5025732;28;20326;-69
2022/10/04 03:35:46;;;;;;;4.32;3.60;;;;;;;10.90;83.21;98481.13;5025688;28;20033;-68
2022/10/04 03:38:13;;;;;;;7.40;3.97;;;;;;;10.85;83.93;98505.47;5025315;28;20028;-67
2022/10/04 03:40:44;;;;;;;6.78;4.10;;;;;;;10.81;84.64;98506.50;5024971;28;20022;-68
2022/10/04 03:43:12;;;;;;;7.60;5.97;;;;;;;10.83;84.68;98503.84;5025379;28;20048;-69
2022/10/04 03:45:39;;;;;;;6.78;4.40;;;;;;;10.80;84.37;98499.66;5025336;28;20029;-69
2022/10/04 03:48:10;;;;;;;9.93;6.63;;;;;;;10.97;84.38;98503.28;5024924;28;20349;-69
2022/10/04 03:50:46;;;;;;;6.20;4.07;;;;;;;10.67;84.25;98485.50;5024343;28;20033;-67
2022/10/04 03:53:36;;;;;;;7.70;4.40;;;;;;;10.63;84.72;98477.06;5024340;28;20091;-68
2022/10/04 03:56:09;;;;;;;7.20;4.40;;;;;;;10.83;84.87;98499.53;5025200;28;20199;-67
2022/10/04 03:58:35;;;;;;;6.72;4.03;;;;;;;10.90;84.30;98502.69;5020238;28;20025;-68
2022/10/04 04:01:20;;;;;;;5.63;3.75;;;;;;;10.90;84.63;98515.63;5023163;28;20340;-68
2022/10/04 04:03:51;;;;;;;7.40;4.10;;;;;;;10.72;85.16;98512.06;5024759;28;20306;-68
2022/10/04 04:06:18;;;;;;;6.72;4.20;;;;;;;10.63;85.50;98515.03;5024981;28;20044;-68
2022/10/04 04:08:48;;;;;;;6.50;4.43;;;;;;;10.76;85.49;98510.19;5024526;28;20068;-68
2022/10/04 04:11:28;;;;;;;7.40;4.03;;;;;;;10.42;85.75;98496.88;5025017;28;20080;-67
2022/10/04 04:14:03;;;;;;;6.22;4.03;;;;;;;10.69;85.68;98507.03;5024600;28;20030;-68
2022/10/04 04:16:29;;;;;;;6.65;4.28;;;;;;;10.77;85.69;98517.06;5024434;28;20030;-68
2022/10/04 04:19:00;;;;;;;7.65;4.35;;;;;;;10.56;85.64;98500.66;5028879;28;20040;-68
2022/10/04 04:21:27;;;;;;;7.47;4.50;;;;;;;10.69;85.83;98519.97;5036222;28;20052;-68
2022/10/04 04:23:57;;;;;;;6.65;3.70;;;;;;;10.78;85.77;98511.81;5024451;28;20141;-69
2022/10/04 04:26:56;;;;;;;5.22;4.10;;;;;;;10.70;85.77;98511.28;5024564;28;20037;-68
2022/10/04 04:29:25;;;;;;;7.05;3.78;;;;;;;10.88;85.17;98535.59;5013846;28;20033;-68
2022/10/04 04:31:57;;;;;;;6.40;4.10;;;;;;;10.84;85.62;98513.31;5024517;28;20038;-68
2022/10/04 04:34:28;;;;;;;7.70;4.00;;;;;;;10.83;85.17;98533.19;5023224;28;20225;-67
2022/10/04 04:37:04;;;;;;;7.57;4.17;;;;;;;10.60;86.30;98528.94;5023516;28;20030;-67
2022/10/04 04:39:38;;;;;;;5.25;4.07;;;;;;;10.56;86.22;98513.59;5023640;28;20026;-68
2022/10/04 04:42:33;;;;;;;5.80;4.60;;;;;;;10.61;86.62;98533.22;5024424;28;20088;-68
2022/10/04 04:45:06;;;;;;;9.15;3.90;;;;;;;10.77;85.96;98548.97;5004461;28;20042;-68
2022/10/04 04:47:43;;;;;;;4.68;4.03;;;;;;;10.59;86.61;98513.47;5021767;28;20336;-67
2022/10/04 04:50:21;;;;;;;6.55;4.47;;;;;;;10.66;86.42;98546.81;5024096;28;20052;-67
2022/10/04 04:52:50;;;;;;;8.15;4.38;;;;;;;10.68;86.24;98539.81;5023844;28;20037;-68
2022/10/04 04:55:26;;;;;;;5.57;4.75;;;;;;;10.69;86.30;98530.34;5024217;28;20093;-68
2022/10/04 04:57:55;;;;;;;7.82;4.55;;;;;;;10.52;86.72;98524.06;5023880;28;20344;-67
2022/10/04 05:00:27;;;;;;;7.85;4.57;;;;;;;10.88;86.29;98551.13;5023734;28;20080;-65
2022/10/04 05:02:56;;;;;;;5.90;4.45;;;;;;;10.73;86.24;98547.44;5003104;28;20042;-67
2022/10/04 05:05:25;;;;;;;6.20;4.70;;;;;;;10.72;86.11;98527.63;5034159;28;20061;-68
2022/10/04 05:08:09;;;;;;;5.82;4.57;;;;;;;10.75;86.06;98552.53;5023556;28;20083;-68
2022/10/04 05:10:37;;;;;;;9.18;4.80;;;;;;;10.85;85.96;98546.06;5023607;28;20057;-67
2022/10/04 05:13:03;;;;;;;6.35;4.38;;;;;;;10.94;85.69;98545.69;5024054;28;20226;-68
2022/10/04 05:15:37;;;;;;;7.50;4.68;;;;;;;10.97;85.72;98555.09;5023813;28;20040;-68
2022/10/04 05:18:41;;;;;;;6.78;4.45;;;;;;;10.90;85.97;98553.66;5023926;28;20101;-66
2022/10/04 05:21:15;;;;;;;5.47;3.97;;;;;;;11.02;85.08;98545.38;4944283;29;20036;-67
2022/10/04 05:23:41;;;;;;;10.90;4.28;;;;;;;11.11;84.33;98563.13;4961430;29;20106;-67
2022/10/04 05:26:12;;;;;;;4.32;3.90;;;;;;;11.11;85.05;98568.31;4947013;29;20027;-69
2022/10/04 05:28:38;;;;;;;5.38;3.92;;;;;;;11.22;83.89;98571.28;4952857;28;20139;-67
2022/10/04 05:31:39;;;;;;;6.82;4.03;;;;;;;11.34;84.16;98558.72;4972819;28;20043;-66
2022/10/04 05:34:26;;;;;;;6.65;4.00;;;;;;;11.24;83.85;98563.44;4975993;28;20271;-66
2022/10/04 05:37:22;;;;;;;7.18;4.47;;;;;;;11.11;84.08;98576.06;4962890;29;20070;-68
2022/10/04 05:39:53;;;;;;;5.18;4.00;;;;;;;11.26;83.93;98565.97;4946776;29;20054;-67
2022/10/04 05:42:25;;;;;;;7.35;3.80;;;;;;;11.43;83.64;98579.06;4963138;29;20331;-67
2022/10/04 05:44:53;;;;;;;5.20;3.78;;;;;;;11.30;83.59;98557.16;4962738;29;20050;-67
2022/10/04 05:47:26;;;;;;;7.15;3.95;;;;;;;11.26;83.58;98555.59;4963194;29;20035;-67
2022/10/04 05:49:57;;;;;;;5.30;4.05;;;;;;;11.28;83.38;98562.41;4962758;29;20344;-67
2022/10/04 05:52:34;;;;;;;4.67;3.70;;;;;;;11.31;83.00;98580.41;5006797;28;20053;-67
2022/10/04 05:55:15;;;;;;;5.97;4.03;;;;;;;11.51;83.25;98561.41;5023471;28;20798;-67
2022/10/04 05:58:18;;;;;;;6.30;3.83;;;;;;;11.42;83.04;98571.38;5022069;28;20088;-68
2022/10/04 06:01:02;;;;;;;5.30;3.80;;;;;;;11.61;83.17;98566.22;5022784;28;20021;-67
2022/10/04 06:03:45;;;;;;;4.47;3.70;;;;;;;11.46;82.87;98578.06;5023328;28;20022;-67
2022/10/04 06:06:21;;;;;;;7.88;3.85;;;;;;;11.50;82.61;98536.41;5004576;28;20202;-67
2022/10/04 06:09:33;;;;;;;4.68;3.45;;;;;;;11.79;81.63;98570.59;5012242;28;20026;-67
2022/10/04 06:12:29;;;;;;;6.32;4.13;;;;;;;11.94;80.55;98576.84;5003441;28;20266;-68
2022/10/04 06:15:16;;;;;;;5.15;3.72;;;;;;;12.00;81.29;98573.16;5022481;28;20376;-68
2022/10/04 06:18:15;;;;;;;7.55;3.72;;;;;;;11.85;81.21;98579.84;5026014;28;20157;-67
2022/10/04 06:20:53;;;;;;;7.00;3.67;;;;;;;11.93;78.92;98580.34;5031944;28;20243;-68
2022/10/04 06:23:22;;;;;;;7.38;4.13;;;;;;;11.99;79.12;98581.88;5025780;28;20037;-67
2022/10/04 06:26:16;;;;;;;8.32;3.63;;;;;;;12.08;78.79;98586.63;5025067;28;20034;-67
2022/10/04 06:28:48;;;;;;;6.75;3.22;;;;;;;11.97;79.16;98592.31;5022345;28;20037;-68
2022/10/04 06:31:26;;;;;;;8.35;3.33;;;;;;;11.98;78.26;98598.34;5026495;28;20067;-68
2022/10/04 06:34:01;;;;;;;9.18;4.15;;;;;;;11.93;79.25;98585.53;5038864;28;20253;-67
2022/10/04 06:36:33;;;;;;;3.83;3.00;;;;;;;11.90;78.82;98583.09;5023591;28;20026;-67
2022/10/04 06:39:09;;;;;;;5.55;3.58;;;;;;;11.97;78.10;98589.72;5019710;28;20101;-67
2022/10/04 06:42:09;;;;;;;5.13;3.17;;;;;;;12.05;77.22;98582.41;5016231;28;20033;-67
2022/10/04 06:45:00;;;;;;;7.63;3.42;;;;;;;12.26;76.54;98588.38;5023226;28;20029;-67
2022/10/04 06:47:54;;;;;;;6.30;3.60;;;;;;;12.35;76.52;98594.06;5022027;28;20037;-67
2022/10/04 06:51:04;;;;;;;5.72;3.20;;;;;;;12.47;75.95;98588.31;5026211;28;20450;-67
2022/10/04 06:53:48;;;;;;;5.57;3.40;;;;;;;12.59;76.05;98605.06;5005992;28;20038;-67
2022/10/04 06:56:17;;;;;;;7.13;3.40;;;;;;;12.58;74.86;98592.97;5023451;28;20330;-66
2022/10/04 06:58:54;;;;;;;6.88;2.63;;;;;;;12.47;74.83;98597.81;5025954;28;20057;-67
2022/10/04 07:01:32;;;;;;;8.30;2.95;;;;;;;12.29;75.19;98584.81;5026172;28;20422;-67
2022/10/04 07:04:07;;;;;;;4.70;3.00;;;;;;;12.64;74.57;98604.81;5026177;28;20032;-67
2022/10/04 07:06:46;;;;;;;3.72;2.78;;;;;;;12.57;73.58;98599.94;5025816;28;20048;-67
2022/10/04 07:09:24;;;;;;;5.55;2.90;;;;;;;12.68;72.81;98604.59;5006726;28;20028;-67
2022/10/04 07:12:07;;;;;;;7.22;3.08;;;;;;;12.75;72.61;98598.22;5024461;28;20089;-67
2022/10/04 07:14:44;;;;;;;5.82;2.97;;;;;;;12.74;73.56;98585.28;5024622;28;20088;-68
2022/10/04 07:17:21;;;;;;;5.90;3.30;;;;;;;12.97;72.89;98586.78;5025584;28;20026;-67
2022/10/04 07:19:51;;;;;;;5.20;3.13;;;;;;;12.83;71.55;98573.63;5035468;28;20186;-67
2022/10/04 07:22:41;;;;;;;4.57;2.97;;;;;;;13.22;71.92;98596.78;5039848;28;20026;-68
2022/10/04 07:25:35;;;;;;;4.28;2.95;;;;;;;13.13;70.26;98579.91;5025647;28;20038;-67
2022/10/04 07:31:26;;;;;;;7.00;2.75;;;;;;;13.11;70.60;98594.75;5025231;28;20045;-67
2022/10/04 07:34:03;;;;;;;5.22;2.47;;;;;;;13.25;69.99;98596.66;5021812;28;20053;-67
2022/10/04 07:36:37;;;;;;;4.15;2.53;;;;;;;13.13;70.24;98620.66;5025509;28;20080;-66
2022/10/04 07:39:09;;;;;;;5.25;2.85;;;;;;;13.15;69.78;98598.00;5005584;28;20033;-67
2022/10/04 07:41:44;;;;;;;5.85;2.70;;;;;;;12.98;70.10;98593.66;5020514;28;20026;-67
2022/10/04 07:44:21;;;;;;;3.95;2.65;;;;;;;13.23;69.05;98605.44;5024781;28;20065;-66
2022/10/04 07:47:02;;;;;;;5.53;2.65;;;;;;;13.08;69.01;98605.28;5025105;28;20202;-67
2022/10/04 07:49:27;;;;;;;5.95;2.35;;;;;;;13.29;69.59;98603.34;5025195;28;20026;-66
2022/10/04 07:52:12;;;;;;;4.65;2.40;;;;;;;13.33;68.91;98605.84;5024866;28;20029;-66
2022/10/04 07:54:48;;;;;;;4.43;2.45;;;;;;;13.36;68.74;98588.34;5025295;28;20040;-68
2022/10/04 07:58:00;;;;;;;6.22;2.72;;;;;;;13.60;66.78;98609.66;5005330;28;20206;-67
2022/10/04 08:00:35;;;;;;;4.70;2.70;;;;;;;13.66;65.96;98595.47;5005237;28;20026;-67
2022/10/04 08:03:24;;;;;;;5.35;2.50;;;;;;;13.64;66.06;98589.53;5024429;28;20076;-67
2022/10/04 08:06:13;;;;;;;6.07;2.25;;;;;;;13.56;65.94;98579.50;5024747;28;20106;-67
2022/10/04 08:09:00;;;;;;;4.07;2.15;;;;;;;13.91;65.98;98588.97;5022951;28;20049;-67
2022/10/04 08:11:47;;;;;;;3.97;2.40;;;;;;;14.06;64.93;98592.56;5024677;28;20094;-67
2022/10/04 08:14:45;;;;;;;3.72;2.10;;;;;;;13.81;63.18;98550.44;5025090;28;20030;-67
2022/10/04 08:17:29;;;;;;;8.18;2.40;;;;;;;14.22;63.86;98582.97;5025205;28;20026;-67
2022/10/04 08:20:22;;;;;;;6.85;2.15;;;;;;;14.03;63.44;98566.69;5034957;28;20033;-67
2022/10/04 08:23:25;;;;;;;2.20;1.98;;;;;;;14.37;63.10;98598.72;5035042;28;20089;-67
2022/10/04 08:26:00;;;;;;;5.32;2.40;;;;;;;14.50;63.78;98597.94;5024623;28;20152;-67
2022/10/04 08:32:06;;;;;;;2.85;2.15;;;;;;;14.38;64.18;98588.22;5001214;28;20041;-67
2022/10/04 08:34:57;;;;;;;5.50;2.33;;;;;;;14.24;63.03;98575.09;5024219;28;20030;-67
2022/10/04 08:37:48;;;;;;;3.85;2.20;;;;;;;14.03;63.02;98595.31;5024194;28;20053;-67
2022/10/04 08:40:17;;;;;;;4.07;2.50;;;;;;;14.22;64.08;98603.81;5008293;28;20056;-67
2022/10/04 08:43:14;;;;;;;4.10;2.38;;;;;;;14.16;63.04;98598.94;5024213;28;20034;-68
2022/10/04 08:46:23;;;;;;;3.13;2.25;;;;;;;14.07;63.06;98595.06;5004620;28;20026;-68
2022/10/04 08:49:27;;;;;;;4.97;2.17;;;;;;;14.18;63.95;98609.28;5020503;28;20328;-70
2022/10/04 08:52:00;;;;;;;7.20;2.53;;;;;;;14.16;63.83;98606.75;4963320;29;20236;-68
2022/10/04 08:54:45;;;;;;;5.78;2.33;;;;;;;14.31;62.88;98610.31;4963954;29;20087;-67
2022/10/04 08:57:14;;;;;;;5.65;2.15;;;;;;;14.25;63.67;98608.88;4990437;28;20042;-68
2022/10/04 09:00:19;;;;;;;3.47;2.08;;;;;;;14.14;63.07;98591.22;5020191;28;20029;-68
2022/10/04 09:03:06;;;;;;;10.50;4.80;;;;;;;14.17;61.81;98610.22;5023808;28;20084;-67
2022/10/04 09:06:01;;;;;;;4.82;2.22;;;;;;;14.10;63.20;98597.50;5023879;28;20029;-68
2022/10/04 09:08:39;;;;;;;5.93;2.45;;;;;;;14.25;62.44;98610.63;5000617;28;20277;-67
2022/10/04 09:11:43;;;;;;;6.47;2.03;;;;;;;14.26;62.47;98600.13;5023996;28;20029;-67
2022/10/04 09:14:14;;;;;;;5.22;2.38;;;;;;;14.23;61.72;98595.09;4993302;28;20069;-67
2022/10/04 09:16:45;;;;;;;3.22;2.08;;;;;;;14.24;62.50;98607.19;5023404;28;20036;-67
2022/10/04 09:19:19;;;;;;;4.47;2.40;;;;;;;14.37;62.25;98596.13;5027668;28;20241;-67
2022/10/04 09:21:45;;;;;;;5.00;2.30;;;;;;;14.53;61.72;98607.34;5043307;28;20033;-67
2022/10/04 09:24:16;;;;;;;5.97;2.28;;;;;;;14.58;61.39;98609.69;5023332;28;20084;-66
2022/10/04 09:27:10;;;;;;;5.45;2.13;;;;;;;14.44;60.92;98598.28;5022995;28;20313;-66
2022/10/04 09:29:58;;;;;;;3.78;2.33;;;;;;;14.91;61.20;98596.59;5023458;28;20069;-66
2022/10/04 09:32:41;;;;;;;4.97;2.20;;;;;;;14.96;59.47;98572.84;5017405;28;20050;-67
2022/10/04 09:35:34;;;;;;;4.57;2.40;;;;;;;14.82;59.31;98597.09;5024220;28;20046;-68
2022/10/04 09:38:09;;;;;;;3.15;2.33;;;;;;;15.04;59.53;98603.72;5020230;28;20089;-66
2022/10/04 09:41:02;;;;;;;5.72;2.22;;;;;;;14.90;59.71;98591.47;5026419;28;20032;-66
2022/10/04 09:44:01;;;;;;;7.15;2.58;;;;;;;14.80;59.77;98593.75;5025299;28;20026;-68
2022/10/04 09:46:43;;;;;;;3.75;2.13;;;;;;;14.80;59.94;98594.56;5028784;28;20294;-64
2022/10/04 09:49:26;;;;;;;5.22;2.42;;;;;;;15.03;59.40;98597.63;5022606;28;20072;-66
2022/10/04 09:52:00;;;;;;;3.25;2.10;;;;;;;14.93;58.96;98578.25;5025302;28;20022;-67
2022/10/04 09:54:49;;;;;;;6.60;2.20;;;;;;;14.93;59.26;98584.28;5027046;28;20334;-66
2022/10/04 09:57:38;;;;;;;3.90;2.25;;;;;;;14.67;59.53;98573.56;5007632;28;20230;-67
2022/10/04 10:00:13;;;;;;;2.90;1.92;;;;;;;14.70;59.94;98589.97;5025336;28;20261;-66
2022/10/04 10:03:23;;;;;;;4.50;2.42;;;;;;;14.78;59.93;98586.00;5025953;28;20026;-67
2022/10/04 10:06:25;;;;;;;2.30;2.10;;;;;;;14.80;60.37;98588.53;5012282;28;20033;-67
2022/10/04 10:09:05;;;;;;;4.00;2.38;;;;;;;14.78;60.66;98578.19;5039584;28;20233;-68
2022/10/04 10:14:45;;;;;;;2.17;1.85;;;;;;;14.75;59.13;98586.19;5027002;28;20092;-67
2022/10/04 10:17:40;;;;;;;3.20;1.80;;;;;;;14.64;59.21;98578.97;5027028;28;20026;-67
2022/10/04 10:20:27;;;;;;;2.63;2.22;;;;;;;14.63;59.32;98592.09;5037598;28;20037;-67
2022/10/04 10:23:12;;;;;;;5.43;2.30;;;;;;;14.61;59.94;98575.69;5037559;28;20340;-67
2022/10/04 10:25:46;;;;;;;6.60;2.00;;;;;;;14.77;60.76;98581.72;5022411;28;20057;-67
2022/10/04 10:28:32;;;;;;;3.72;2.13;;;;;;;14.65;59.48;98588.47;5010129;28;20034;-67
2022/10/04 10:31:31;;;;;;;3.35;2.15;;;;;;;14.74;60.18;98594.09;5026587;28;20080;-68
2022/10/04 10:34:00;;;;;;;12.18;2.30;;;;;;;14.89;59.19;98603.63;5026530;28;20317;-69
2022/10/04 10:36:44;;;;;;;3.42;2.10;;;;;;;14.77;59.24;98593.91;5025750;28;20033;-67
2022/10/04 10:39:47;;;;;;;2.65;1.98;;;;;;;14.88;59.47;98588.94;5026665;28;20026;-68
2022/10/04 10:42:49;;;;;;;4.10;2.25;;;;;;;14.82;58.53;98592.75;5026337;28;20042;-67
2022/10/04 10:45:31;;;;;;;2.35;2.08;;;;;;;14.73;58.96;98576.78;5006927;28;20206;-67
2022/10/04 10:48:05;;;;;;;4.00;2.00;;;;;;;14.75;58.70;98580.97;5024182;28;20041;-67
2022/10/04 10:50:58;;;;;;;3.67;2.20;;;;;;;14.76;59.08;98581.81;5025996;28;20065;-67
2022/10/04 10:53:52;;;;;;;3.13;1.90;;;;;;;14.73;61.09;98598.44;5026349;28;20037;-67
2022/10/04 10:56:44;;;;;;;5.05;2.38;;;;;;;14.66;63.46;98607.53;5025759;28;20040;-66
2022/10/04 10:59:28;;;;;;;5.90;2.75;;;;;;;14.41;67.59;98667.94;5026884;28;20034;-67
2022/10/04 11:02:15;;;;;;;4.70;2.72;;;;;;;14.05;72.97;98693.25;5019833;28;20352;-67
2022/10/04 11:05:02;;;;;;;3.33;2.50;;;;;;;13.56;78.83;98696.56;5026047;28;20097;-67
2022/10/04 11:07:40;;;;;;;4.88;2.60;;;;;;;13.02;79.48;98695.72;5027251;28;20026;-67
2022/10/04 11:10:44;;;;;;;4.45;2.50;;;;;;;12.97;82.63;98710.69;5018883;28;20049;-68
2022/10/04 11:13:13;;;;;;;3.22;2.13;;;;;;;12.84;81.15;98728.59;5024796;28;20044;-67
2022/10/04 11:15:50;;;;;;;3.10;1.70;;;;;;;12.60;80.94;98753.03;5020867;28;20030;-67
2022/10/04 11:18:48;;;;;;;2.33;1.52;;;;;;;12.65;81.22;98746.78;5018078;28;20041;-65
2022/10/04 11:22:06;;;;;;;1.90;1.80;;;;;;;12.70;82.82;98753.47;5018406;28;20076;-66
2022/10/04 11:24:49;;;;;;;5.25;1.70;;;;;;;12.42;82.76;98751.25;4989179;28;20035;-65
2022/10/04 11:27:18;;;;;;;2.22;1.35;;;;;;;12.16;81.11;98760.19;5021458;28;20298;-65
2022/10/04 11:29:47;;;;;;;1.98;1.42;;;;;;;12.27;81.69;98752.78;5018754;28;20085;-65
2022/10/04 11:32:37;;;;;;;3.00;1.35;;;;;;;12.16;81.22;98761.03;5016751;28;20303;-67
2022/10/04 11:35:10;;;;;;;3.30;1.50;;;;;;;12.05;81.60;98758.03;5019747;28;20345;-65
2022/10/04 11:38:01;;;;;;;1.83;1.30;;;;;;;12.00;81.49;98770.34;5019756;28;20264;-66
2022/10/04 11:40:41;;;;;;;1.35;1.25;;;;;;;11.83;80.81;98790.06;5019679;28;20030;-66
2022/10/04 11:43:34;;;;;;;2.33;1.30;;;;;;;11.67;82.68;98787.25;5016393;28;20056;-67
2022/10/04 11:46:06;;;;;;;2.10;1.90;;;;;;;11.85;81.58;98783.03;5024182;28;20096;-66
2022/10/04 11:48:38;;;;;;;1.63;1.20;;;;;;;11.77;80.91;98790.28;5025177;28;20089;-66
2022/10/04 11:51:22;;;;;;;3.70;1.75;;;;;;;11.67;81.16;98782.06;5025208;28;20033;-66
2022/10/04 11:54:11;;;;;;;1.50;1.20;;;;;;;11.66;81.51;98780.38;5025122;28;20021;-67
2022/10/04 11:57:07;;;;;;;1.40;1.23;;;;;;;11.67;82.06;98778.59;5017150;28;20313;-67
2022/10/04 11:59:36;;;;;;;1.98;1.33;;;;;;;11.73;82.97;98793.94;5023818;28;20029;-66
2022/10/04 12:02:33;;;;;;;2.70;1.40;;;;;;;11.67;82.08;98784.66;5024418;28;20025;-66
2022/10/04 12:05:20;;;;;;;1.67;1.30;;;;;;;11.62;81.15;98780.56;5020904;28;20069;-67
2022/10/04 12:08:10;;;;;;;2.53;1.48;;;;;;;11.57;81.57;98781.59;5019896;28;20045;-66
2022/10/04 12:10:38;;;;;;;1.92;1.52;;;;;;;11.64;81.41;98791.69;5024521;28;20029;-66
2022/10/04 12:13:31;;;;;;;1.77;1.40;;;;;;;11.56;80.97;98779.06;5024946;28;20172;-66
2022/10/04 12:16:28;;;;;;;1.50;1.17;;;;;;;11.56;79.87;98776.47;5024364;28;20018;-66
2022/10/04 12:19:18;;;;;;;1.52;1.42;;;;;;;11.50;79.42;98787.91;5024596;28;20253;-66
2022/10/04 12:21:57;;;;;;;1.77;1.42;;;;;;;11.54;79.20;98789.50;5004943;28;20041;-66
2022/10/04 12:24:47;;;;;;;2.05;1.40;;;;;;;11.74;78.85;98793.00;5020919;28;20175;-66
2022/10/04 12:27:31;;;;;;;2.13;1.10;;;;;;;11.54;76.68;98793.81;5016776;28;20208;-66
2022/10/04 12:30:22;;;;;;;3.58;1.67;;;;;;;11.23;77.55;98792.44;5017192;28;20215;-66
2022/10/04 12:33:05;;;;;;;3.10;1.55;;;;;;;11.47;78.87;98792.38;5020320;28;20058;-66
2022/10/04 12:35:34;;;;;;;1.30;1.05;;;;;;;11.49;76.11;98804.38;5021768;28;20337;-67
2022/10/04 12:38:36;;;;;;;2.08;1.10;;;;;;;11.30;77.50;98796.50;5004551;28;20037;-66
2022/10/04 12:41:14;;;;;;;3.88;1.40;;;;;;;11.41;77.44;98811.59;5021437;28;20093;-66
2022/10/04 12:44:17;;;;;;;2.25;1.48;;;;;;;11.59;76.81;98810.03;5020419;28;20302;-66